sensor_id;sensor_type;location;lat;lon;timestamp;temperature;humidity
2202;DHT22;1107;48.654;9.250;2023-11-21T00:02:21;7.90;99.90
2202;DHT22;1107;48.654;9.250;2023-11-21T00:04:48;7.90;99.90
2202;DHT22;1107;48.654;9.250;2023-11-21T00:07:16;7.90;99.90
2202;DHT22;1107;48.654;9.250;2023-11-21T00:09:43;7.90;99.90
2202;DHT22;1107;48.654;9.250;2023-11-21T00:12:10;7.90;99.90
2202;DHT22;1107;48.654;9.250;2023-11-21T00:14:37;7.90;99.90
2202;DHT22;1107;48.654;9.250;2023-11-21T00:17:05;7.90;99.90
2202;DHT22;1107;48.654;9.250;2023-11-21T00:19:32;7.80;99.90
2202;DHT22;1107;48.654;9.250;2023-11-21T00:21:59;7.90;99.90
2202;DHT22;1107;48.654;9.250;2023-11-21T00:24:27;7.90;99.90
2202;DHT22;1107;48.654;9.250;2023-11-21T00:26:54;7.90;99.90
2202;DHT22;1107;48.654;9.250;2023-11-21T00:29:21;7.90;99.90
2202;DHT22;1107;48.654;9.250;2023-11-21T00:31:48;7.90;99.90
2202;DHT22;1107;48.654;9.250;2023-11-21T00:34:15;7.90;99.90
2202;DHT22;1107;48.654;9.250;2023-11-21T00:36:42;7.90;99.90
2202;DHT22;1107;48.654;9.250;2023-11-21T00:39:09;7.90;99.90
2202;DHT22;1107;48.654;9.250;2023-11-21T00:41:38;8.00;99.90
2202;DHT22;1107;48.654;9.250;2023-11-21T00:44:05;7.90;99.90
2202;DHT22;1107;48.654;9.250;2023-11-21T00:46:33;7.90;99.90
2202;DHT22;1107;48.654;9.250;2023-11-21T00:49:00;7.90;99.90
2202;DHT22;1107;48.654;9.250;2023-11-21T00:51:28;7.90;99.90
2202;DHT22;1107;48.654;9.250;2023-11-21T00:53:55;7.80;99.90
2202;DHT22;1107;48.654;9.250;2023-11-21T00:56:22;7.80;99.90
2202;DHT22;1107;48.654;9.250;2023-11-21T00:58:50;7.80;99.90
2202;DHT22;1107;48.654;9.250;2023-11-21T01:01:18;7.70;99.90
2202;DHT22;1107;48.654;9.250;2023-11-21T01:03:46;7.70;99.90
2202;DHT22;1107;48.654;9.250;2023-11-21T01:06:14;7.70;99.90
2202;DHT22;1107;48.654;9.250;2023-11-21T01:08:41;7.70;99.90
2202;DHT22;1107;48.654;9.250;2023-11-21T01:11:08;7.70;99.90
2202;DHT22;1107;48.654;9.250;2023-11-21T01:13:37;7.70;99.90
2202;DHT22;1107;48.654;9.250;2023-11-21T01:16:07;7.60;99.90
2202;DHT22;1107;48.654;9.250;2023-11-21T01:18:35;7.60;99.90
2202;DHT22;1107;48.654;9.250;2023-11-21T01:21:02;7.60;99.90
2202;DHT22;1107;48.654;9.250;2023-11-21T01:23:29;7.60;99.90
2202;DHT22;1107;48.654;9.250;2023-11-21T01:25:56;7.60;99.90
2202;DHT22;1107;48.654;9.250;2023-11-21T01:28:23;7.70;99.90
2202;DHT22;1107;48.654;9.250;2023-11-21T01:30:50;7.70;99.90
2202;DHT22;1107;48.654;9.250;2023-11-21T01:33:19;7.70;99.90
2202;DHT22;1107;48.654;9.250;2023-11-21T01:35:45;7.70;99.90
2202;DHT22;1107;48.654;9.250;2023-11-21T01:38:12;7.70;99.90
2202;DHT22;1107;48.654;9.250;2023-11-21T01:40:39;7.70;99.90
2202;DHT22;1107;48.654;9.250;2023-11-21T01:43:06;7.70;99.90
2202;DHT22;1107;48.654;9.250;2023-11-21T01:45:34;7.70;99.90
2202;DHT22;1107;48.654;9.250;2023-11-21T01:48:01;7.70;99.90
2202;DHT22;1107;48.654;9.250;2023-11-21T01:50:30;7.70;99.90
2202;DHT22;1107;48.654;9.250;2023-11-21T01:52:57;7.70;99.90
2202;DHT22;1107;48.654;9.250;2023-11-21T01:55:24;7.70;99.90
2202;DHT22;1107;48.654;9.250;2023-11-21T01:57:52;7.70;99.90
2202;DHT22;1107;48.654;9.250;2023-11-21T02:00:20;7.80;99.90
2202;DHT22;1107;48.654;9.250;2023-11-21T02:02:47;7.70;99.90
2202;DHT22;1107;48.654;9.250;2023-11-21T02:05:15;7.80;99.90
2202;DHT22;1107;48.654;9.250;2023-11-21T02:07:44;7.80;99.90
2202;DHT22;1107;48.654;9.250;2023-11-21T02:10:14;7.80;99.90
2202;DHT22;1107;48.654;9.250;2023-11-21T02:12:41;7.80;99.90
2202;DHT22;1107;48.654;9.250;2023-11-21T02:15:10;7.80;99.90
2202;DHT22;1107;48.654;9.250;2023-11-21T02:17:41;7.80;99.90
2202;DHT22;1107;48.654;9.250;2023-11-21T02:20:10;7.80;99.90
2202;DHT22;1107;48.654;9.250;2023-11-21T02:22:41;7.80;99.90
2202;DHT22;1107;48.654;9.250;2023-11-21T02:25:10;7.80;99.90
2202;DHT22;1107;48.654;9.250;2023-11-21T02:27:37;7.80;99.90
2202;DHT22;1107;48.654;9.250;2023-11-21T02:30:05;7.80;99.90
2202;DHT22;1107;48.654;9.250;2023-11-21T02:32:33;7.70;99.90
2202;DHT22;1107;48.654;9.250;2023-11-21T02:35:00;7.70;99.90
2202;DHT22;1107;48.654;9.250;2023-11-21T02:37:33;7.70;99.90
2202;DHT22;1107;48.654;9.250;2023-11-21T02:40:00;7.60;99.90
2202;DHT22;1107;48.654;9.250;2023-11-21T02:42:31;7.60;99.90
2202;DHT22;1107;48.654;9.250;2023-11-21T02:44:59;7.60;99.90
2202;DHT22;1107;48.654;9.250;2023-11-21T02:47:26;7.50;99.90
2202;DHT22;1107;48.654;9.250;2023-11-21T02:49:52;7.40;99.90
2202;DHT22;1107;48.654;9.250;2023-11-21T02:52:19;7.40;99.90
2202;DHT22;1107;48.654;9.250;2023-11-21T02:54:46;7.40;99.90
2202;DHT22;1107;48.654;9.250;2023-11-21T02:57:13;7.40;99.90
2202;DHT22;1107;48.654;9.250;2023-11-21T02:59:41;7.40;99.90
2202;DHT22;1107;48.654;9.250;2023-11-21T03:02:08;7.50;99.90
2202;DHT22;1107;48.654;9.250;2023-11-21T03:04:35;7.50;99.90
2202;DHT22;1107;48.654;9.250;2023-11-21T03:07:02;7.50;99.90
2202;DHT22;1107;48.654;9.250;2023-11-21T03:09:30;7.50;99.90
2202;DHT22;1107;48.654;9.250;2023-11-21T03:11:57;7.50;99.90
2202;DHT22;1107;48.654;9.250;2023-11-21T03:14:24;7.50;99.90
2202;DHT22;1107;48.654;9.250;2023-11-21T03:16:53;7.50;99.90
2202;DHT22;1107;48.654;9.250;2023-11-21T03:19:19;7.50;99.90
2202;DHT22;1107;48.654;9.250;2023-11-21T03:21:46;7.50;99.90
2202;DHT22;1107;48.654;9.250;2023-11-21T03:24:13;7.50;99.90
2202;DHT22;1107;48.654;9.250;2023-11-21T03:26:44;7.50;99.90
2202;DHT22;1107;48.654;9.250;2023-11-21T03:29:12;7.40;99.90
2202;DHT22;1107;48.654;9.250;2023-11-21T03:31:40;7.40;99.90
2202;DHT22;1107;48.654;9.250;2023-11-21T03:34:14;7.40;99.90
2202;DHT22;1107;48.654;9.250;2023-11-21T03:36:41;7.40;99.90
2202;DHT22;1107;48.654;9.250;2023-11-21T03:39:08;7.40;99.90
2202;DHT22;1107;48.654;9.250;2023-11-21T03:41:35;7.40;99.90
2202;DHT22;1107;48.654;9.250;2023-11-21T03:44:02;7.20;99.90
2202;DHT22;1107;48.654;9.250;2023-11-21T03:46:29;7.40;99.90
2202;DHT22;1107;48.654;9.250;2023-11-21T03:48:56;7.40;99.90
2202;DHT22;1107;48.654;9.250;2023-11-21T03:51:24;7.40;99.90
2202;DHT22;1107;48.654;9.250;2023-11-21T03:53:51;7.40;99.90
2202;DHT22;1107;48.654;9.250;2023-11-21T03:56:19;7.40;99.90
2202;DHT22;1107;48.654;9.250;2023-11-21T03:58:47;7.40;99.90
2202;DHT22;1107;48.654;9.250;2023-11-21T04:01:20;7.40;99.90
2202;DHT22;1107;48.654;9.250;2023-11-21T04:03:48;7.40;99.90
2202;DHT22;1107;48.654;9.250;2023-11-21T04:06:15;7.40;99.90
2202;DHT22;1107;48.654;9.250;2023-11-21T04:08:44;7.50;99.90
2202;DHT22;1107;48.654;9.250;2023-11-21T04:11:11;7.50;99.90
2202;DHT22;1107;48.654;9.250;2023-11-21T04:13:38;7.50;99.90
2202;DHT22;1107;48.654;9.250;2023-11-21T04:16:06;7.50;99.90
2202;DHT22;1107;48.654;9.250;2023-11-21T04:18:33;7.60;99.90
2202;DHT22;1107;48.654;9.250;2023-11-21T04:21:00;7.60;99.90
2202;DHT22;1107;48.654;9.250;2023-11-21T04:23:29;7.60;99.90
2202;DHT22;1107;48.654;9.250;2023-11-21T04:25:58;7.60;99.90
2202;DHT22;1107;48.654;9.250;2023-11-21T04:28:25;7.60;99.90
2202;DHT22;1107;48.654;9.250;2023-11-21T04:30:52;7.60;99.90
2202;DHT22;1107;48.654;9.250;2023-11-21T04:33:19;7.60;99.90
2202;DHT22;1107;48.654;9.250;2023-11-21T04:35:47;7.60;99.90
2202;DHT22;1107;48.654;9.250;2023-11-21T04:38:14;7.60;99.90
2202;DHT22;1107;48.654;9.250;2023-11-21T04:40:41;7.60;99.90
2202;DHT22;1107;48.654;9.250;2023-11-21T04:43:09;7.60;99.90
2202;DHT22;1107;48.654;9.250;2023-11-21T04:45:36;7.60;99.90
2202;DHT22;1107;48.654;9.250;2023-11-21T04:48:03;7.60;99.90
2202;DHT22;1107;48.654;9.250;2023-11-21T04:50:31;7.60;99.90
2202;DHT22;1107;48.654;9.250;2023-11-21T04:52:58;7.60;99.90
2202;DHT22;1107;48.654;9.250;2023-11-21T04:55:25;7.60;99.90
2202;DHT22;1107;48.654;9.250;2023-11-21T04:57:53;7.60;99.90
2202;DHT22;1107;48.654;9.250;2023-11-21T05:00:22;7.60;99.90
2202;DHT22;1107;48.654;9.250;2023-11-21T05:02:49;7.60;99.90
2202;DHT22;1107;48.654;9.250;2023-11-21T05:05:16;7.60;99.90
2202;DHT22;1107;48.654;9.250;2023-11-21T05:07:44;7.60;99.90
2202;DHT22;1107;48.654;9.250;2023-11-21T05:10:11;7.60;99.90
2202;DHT22;1107;48.654;9.250;2023-11-21T05:12:40;7.60;99.90
2202;DHT22;1107;48.654;9.250;2023-11-21T05:15:09;7.60;99.90
2202;DHT22;1107;48.654;9.250;2023-11-21T05:17:37;7.60;99.90
2202;DHT22;1107;48.654;9.250;2023-11-21T05:20:05;7.60;99.90
2202;DHT22;1107;48.654;9.250;2023-11-21T05:22:34;7.60;99.90
2202;DHT22;1107;48.654;9.250;2023-11-21T05:25:01;7.60;99.90
2202;DHT22;1107;48.654;9.250;2023-11-21T05:27:29;7.60;99.90
2202;DHT22;1107;48.654;9.250;2023-11-21T05:29:56;7.60;99.90
2202;DHT22;1107;48.654;9.250;2023-11-21T05:32:23;7.60;99.90
2202;DHT22;1107;48.654;9.250;2023-11-21T05:34:52;7.60;99.90
2202;DHT22;1107;48.654;9.250;2023-11-21T05:37:19;7.60;99.90
2202;DHT22;1107;48.654;9.250;2023-11-21T05:39:46;7.60;99.90
2202;DHT22;1107;48.654;9.250;2023-11-21T05:42:12;7.60;99.90
2202;DHT22;1107;48.654;9.250;2023-11-21T05:44:41;7.60;99.90
2202;DHT22;1107;48.654;9.250;2023-11-21T05:47:09;7.60;99.90
2202;DHT22;1107;48.654;9.250;2023-11-21T05:49:36;7.60;99.90
2202;DHT22;1107;48.654;9.250;2023-11-21T05:52:05;7.60;99.90
2202;DHT22;1107;48.654;9.250;2023-11-21T05:54:32;7.70;99.90
2202;DHT22;1107;48.654;9.250;2023-11-21T05:56:59;7.60;99.90
2202;DHT22;1107;48.654;9.250;2023-11-21T05:59:26;7.60;99.90
2202;DHT22;1107;48.654;9.250;2023-11-21T06:01:53;7.60;99.90
2202;DHT22;1107;48.654;9.250;2023-11-21T06:04:20;7.60;99.90
2202;DHT22;1107;48.654;9.250;2023-11-21T06:06:50;7.60;99.90
2202;DHT22;1107;48.654;9.250;2023-11-21T06:09:19;7.50;99.90
2202;DHT22;1107;48.654;9.250;2023-11-21T06:11:46;7.50;99.90
2202;DHT22;1107;48.654;9.250;2023-11-21T06:14:13;7.50;99.90
2202;DHT22;1107;48.654;9.250;2023-11-21T06:16:40;7.50;99.90
2202;DHT22;1107;48.654;9.250;2023-11-21T06:19:07;7.50;99.90
2202;DHT22;1107;48.654;9.250;2023-11-21T06:21:35;7.50;99.90
2202;DHT22;1107;48.654;9.250;2023-11-21T06:24:03;7.50;99.90
2202;DHT22;1107;48.654;9.250;2023-11-21T06:26:31;7.50;99.90
2202;DHT22;1107;48.654;9.250;2023-11-21T06:28:58;7.50;99.90
2202;DHT22;1107;48.654;9.250;2023-11-21T06:31:26;7.50;99.90
2202;DHT22;1107;48.654;9.250;2023-11-21T06:33:53;7.50;99.90
2202;DHT22;1107;48.654;9.250;2023-11-21T06:36:20;7.50;99.90
2202;DHT22;1107;48.654;9.250;2023-11-21T06:38:47;7.50;99.90
2202;DHT22;1107;48.654;9.250;2023-11-21T06:41:14;7.50;99.90
2202;DHT22;1107;48.654;9.250;2023-11-21T06:43:42;7.50;99.90
2202;DHT22;1107;48.654;9.250;2023-11-21T06:46:11;7.50;99.90
2202;DHT22;1107;48.654;9.250;2023-11-21T06:48:41;7.50;99.90
2202;DHT22;1107;48.654;9.250;2023-11-21T06:51:08;7.50;99.90
2202;DHT22;1107;48.654;9.250;2023-11-21T06:53:36;7.50;99.90
2202;DHT22;1107;48.654;9.250;2023-11-21T06:56:04;7.50;99.90
2202;DHT22;1107;48.654;9.250;2023-11-21T06:58:32;7.60;99.90
2202;DHT22;1107;48.654;9.250;2023-11-21T07:01:00;7.60;99.90
2202;DHT22;1107;48.654;9.250;2023-11-21T07:03:27;7.60;99.90
2202;DHT22;1107;48.654;9.250;2023-11-21T07:05:54;7.70;99.90
2202;DHT22;1107;48.654;9.250;2023-11-21T07:08:21;7.70;99.90
2202;DHT22;1107;48.654;9.250;2023-11-21T07:10:48;7.70;99.90
2202;DHT22;1107;48.654;9.250;2023-11-21T07:13:15;7.70;99.90
2202;DHT22;1107;48.654;9.250;2023-11-21T07:15:42;7.80;99.90
2202;DHT22;1107;48.654;9.250;2023-11-21T07:18:10;7.80;99.90
2202;DHT22;1107;48.654;9.250;2023-11-21T07:20:37;7.90;99.90
2202;DHT22;1107;48.654;9.250;2023-11-21T07:23:04;7.90;99.90
2202;DHT22;1107;48.654;9.250;2023-11-21T07:25:31;8.00;99.90
2202;DHT22;1107;48.654;9.250;2023-11-21T07:27:59;8.00;99.90
2202;DHT22;1107;48.654;9.250;2023-11-21T07:30:26;8.10;99.90
2202;DHT22;1107;48.654;9.250;2023-11-21T07:32:53;8.10;99.90
2202;DHT22;1107;48.654;9.250;2023-11-21T07:35:21;8.10;99.90
2202;DHT22;1107;48.654;9.250;2023-11-21T07:37:48;8.20;99.90
2202;DHT22;1107;48.654;9.250;2023-11-21T07:40:15;8.20;99.90
2202;DHT22;1107;48.654;9.250;2023-11-21T07:42:42;8.30;99.90
2202;DHT22;1107;48.654;9.250;2023-11-21T07:45:10;8.40;99.90
2202;DHT22;1107;48.654;9.250;2023-11-21T07:47:37;8.30;99.90
2202;DHT22;1107;48.654;9.250;2023-11-21T07:50:05;8.30;99.90
2202;DHT22;1107;48.654;9.250;2023-11-21T07:52:35;8.30;99.90
2202;DHT22;1107;48.654;9.250;2023-11-21T07:55:02;8.30;99.90
2202;DHT22;1107;48.654;9.250;2023-11-21T07:57:29;8.40;99.90
2202;DHT22;1107;48.654;9.250;2023-11-21T07:59:56;8.40;99.90
2202;DHT22;1107;48.654;9.250;2023-11-21T08:02:23;8.50;99.90
2202;DHT22;1107;48.654;9.250;2023-11-21T08:04:51;8.50;99.90
2202;DHT22;1107;48.654;9.250;2023-11-21T08:07:18;8.50;99.90
2202;DHT22;1107;48.654;9.250;2023-11-21T08:09:47;8.50;99.90
2202;DHT22;1107;48.654;9.250;2023-11-21T08:12:15;8.50;99.90
2202;DHT22;1107;48.654;9.250;2023-11-21T08:14:43;8.50;99.90
2202;DHT22;1107;48.654;9.250;2023-11-21T08:17:10;8.50;99.90
2202;DHT22;1107;48.654;9.250;2023-11-21T08:19:37;8.60;99.90
2202;DHT22;1107;48.654;9.250;2023-11-21T08:22:04;8.70;99.90
2202;DHT22;1107;48.654;9.250;2023-11-21T08:24:33;8.80;99.90
2202;DHT22;1107;48.654;9.250;2023-11-21T08:27:01;8.80;99.90
2202;DHT22;1107;48.654;9.250;2023-11-21T08:29:29;8.90;99.90
2202;DHT22;1107;48.654;9.250;2023-11-21T08:31:57;8.90;99.90
2202;DHT22;1107;48.654;9.250;2023-11-21T08:34:25;8.90;99.90
2202;DHT22;1107;48.654;9.250;2023-11-21T08:36:52;8.90;99.90
2202;DHT22;1107;48.654;9.250;2023-11-21T08:39:19;8.80;99.90
2202;DHT22;1107;48.654;9.250;2023-11-21T08:41:46;8.80;99.90
2202;DHT22;1107;48.654;9.250;2023-11-21T08:44:16;8.80;99.90
2202;DHT22;1107;48.654;9.250;2023-11-21T08:46:43;8.90;99.90
2202;DHT22;1107;48.654;9.250;2023-11-21T08:49:10;8.90;99.90
2202;DHT22;1107;48.654;9.250;2023-11-21T08:51:38;8.80;99.90
2202;DHT22;1107;48.654;9.250;2023-11-21T08:54:07;8.80;99.90
2202;DHT22;1107;48.654;9.250;2023-11-21T08:56:34;8.90;99.90
2202;DHT22;1107;48.654;9.250;2023-11-21T08:59:01;8.90;99.90
2202;DHT22;1107;48.654;9.250;2023-11-21T09:01:31;8.90;99.90
2202;DHT22;1107;48.654;9.250;2023-11-21T09:03:58;8.90;99.90
2202;DHT22;1107;48.654;9.250;2023-11-21T09:06:25;8.90;99.90
2202;DHT22;1107;48.654;9.250;2023-11-21T09:08:52;8.90;99.90
2202;DHT22;1107;48.654;9.250;2023-11-21T09:11:19;9.00;99.90
2202;DHT22;1107;48.654;9.250;2023-11-21T09:13:46;9.00;99.90
2202;DHT22;1107;48.654;9.250;2023-11-21T09:16:13;9.00;99.90
2202;DHT22;1107;48.654;9.250;2023-11-21T09:18:42;9.10;99.90
2202;DHT22;1107;48.654;9.250;2023-11-21T09:21:10;9.10;99.90
2202;DHT22;1107;48.654;9.250;2023-11-21T09:23:37;9.30;99.90
2202;DHT22;1107;48.654;9.250;2023-11-21T09:26:05;9.50;99.90
2202;DHT22;1107;48.654;9.250;2023-11-21T09:28:31;9.70;99.90
2202;DHT22;1107;48.654;9.250;2023-11-21T09:30:58;10.20;99.90
2202;DHT22;1107;48.654;9.250;2023-11-21T09:33:27;10.90;99.90
2202;DHT22;1107;48.654;9.250;2023-11-21T09:35:57;11.60;99.90
2202;DHT22;1107;48.654;9.250;2023-11-21T09:38:24;12.20;99.90
2202;DHT22;1107;48.654;9.250;2023-11-21T09:40:52;12.60;99.90
2202;DHT22;1107;48.654;9.250;2023-11-21T09:43:21;12.50;99.90
2202;DHT22;1107;48.654;9.250;2023-11-21T09:45:51;12.10;99.90
2202;DHT22;1107;48.654;9.250;2023-11-21T09:48:20;12.00;99.90
2202;DHT22;1107;48.654;9.250;2023-11-21T09:50:47;11.70;99.90
2202;DHT22;1107;48.654;9.250;2023-11-21T09:53:18;11.30;99.90
2202;DHT22;1107;48.654;9.250;2023-11-21T09:55:48;11.10;99.90
2202;DHT22;1107;48.654;9.250;2023-11-21T09:58:17;11.00;99.90
2202;DHT22;1107;48.654;9.250;2023-11-21T10:00:46;11.10;99.90
2202;DHT22;1107;48.654;9.250;2023-11-21T10:03:13;11.40;99.90
2202;DHT22;1107;48.654;9.250;2023-11-21T10:05:41;11.10;99.90
2202;DHT22;1107;48.654;9.250;2023-11-21T10:08:10;11.10;99.90
2202;DHT22;1107;48.654;9.250;2023-11-21T10:10:43;10.80;99.90
2202;DHT22;1107;48.654;9.250;2023-11-21T10:13:12;10.70;99.90
2202;DHT22;1107;48.654;9.250;2023-11-21T10:15:42;10.30;99.90
2202;DHT22;1107;48.654;9.250;2023-11-21T10:18:14;10.10;99.90
2202;DHT22;1107;48.654;9.250;2023-11-21T10:20:42;10.10;99.90
2202;DHT22;1107;48.654;9.250;2023-11-21T10:23:12;10.00;99.90
2202;DHT22;1107;48.654;9.250;2023-11-21T10:25:42;10.10;99.90
2202;DHT22;1107;48.654;9.250;2023-11-21T10:28:09;10.00;99.90
2202;DHT22;1107;48.654;9.250;2023-11-21T10:30:37;10.00;99.90
2202;DHT22;1107;48.654;9.250;2023-11-21T10:33:07;10.10;99.90
2202;DHT22;1107;48.654;9.250;2023-11-21T10:35:44;10.30;99.90
2202;DHT22;1107;48.654;9.250;2023-11-21T10:38:16;10.10;99.90
2202;DHT22;1107;48.654;9.250;2023-11-21T10:40:45;10.10;99.90
2202;DHT22;1107;48.654;9.250;2023-11-21T10:43:13;10.00;99.90
2202;DHT22;1107;48.654;9.250;2023-11-21T10:45:42;10.00;99.90
2202;DHT22;1107;48.654;9.250;2023-11-21T10:48:10;10.00;99.90
2202;DHT22;1107;48.654;9.250;2023-11-21T10:50:40;10.00;99.90
2202;DHT22;1107;48.654;9.250;2023-11-21T10:53:07;10.10;99.90
2202;DHT22;1107;48.654;9.250;2023-11-21T10:55:34;10.10;99.90
2202;DHT22;1107;48.654;9.250;2023-11-21T10:58:04;10.10;99.90
2202;DHT22;1107;48.654;9.250;2023-11-21T11:00:32;10.10;99.90
2202;DHT22;1107;48.654;9.250;2023-11-21T11:03:00;10.20;99.90
2202;DHT22;1107;48.654;9.250;2023-11-21T11:05:29;10.30;99.90
2202;DHT22;1107;48.654;9.250;2023-11-21T11:07:59;10.20;99.90
2202;DHT22;1107;48.654;9.250;2023-11-21T11:10:27;10.30;99.90
2202;DHT22;1107;48.654;9.250;2023-11-21T11:12:55;10.30;99.90
2202;DHT22;1107;48.654;9.250;2023-11-21T11:15:24;10.20;99.90
2202;DHT22;1107;48.654;9.250;2023-11-21T11:17:52;10.10;99.90
2202;DHT22;1107;48.654;9.250;2023-11-21T11:20:23;10.10;99.90
2202;DHT22;1107;48.654;9.250;2023-11-21T11:22:59;9.90;99.90
2202;DHT22;1107;48.654;9.250;2023-11-21T11:25:46;9.80;99.90
2202;DHT22;1107;48.654;9.250;2023-11-21T11:28:17;9.70;99.90
2202;DHT22;1107;48.654;9.250;2023-11-21T11:30:58;9.80;99.90
2202;DHT22;1107;48.654;9.250;2023-11-21T11:33:36;9.70;99.90
2202;DHT22;1107;48.654;9.250;2023-11-21T11:36:09;9.70;99.90
2202;DHT22;1107;48.654;9.250;2023-11-21T11:38:38;9.60;99.90
2202;DHT22;1107;48.654;9.250;2023-11-21T11:41:06;9.60;99.90
2202;DHT22;1107;48.654;9.250;2023-11-21T11:43:34;9.70;99.90
2202;DHT22;1107;48.654;9.250;2023-11-21T11:46:11;9.70;99.90
2202;DHT22;1107;48.654;9.250;2023-11-21T11:48:40;9.80;99.90
2202;DHT22;1107;48.654;9.250;2023-11-21T11:51:10;9.90;99.90
2202;DHT22;1107;48.654;9.250;2023-11-21T11:53:41;10.00;99.90
2202;DHT22;1107;48.654;9.250;2023-11-21T11:56:23;10.10;99.90
2202;DHT22;1107;48.654;9.250;2023-11-21T11:58:52;10.20;99.90
2202;DHT22;1107;48.654;9.250;2023-11-21T12:01:21;10.40;99.90
2202;DHT22;1107;48.654;9.250;2023-11-21T12:04:25;10.50;99.90
2202;DHT22;1107;48.654;9.250;2023-11-21T12:07:00;10.70;99.90
2202;DHT22;1107;48.654;9.250;2023-11-21T12:09:30;10.80;99.90
2202;DHT22;1107;48.654;9.250;2023-11-21T12:11:58;10.90;99.90
2202;DHT22;1107;48.654;9.250;2023-11-21T12:14:25;10.90;99.90
2202;DHT22;1107;48.654;9.250;2023-11-21T12:16:54;10.90;99.90
2202;DHT22;1107;48.654;9.250;2023-11-21T12:19:21;10.90;99.90
2202;DHT22;1107;48.654;9.250;2023-11-21T12:21:49;10.90;99.90
2202;DHT22;1107;48.654;9.250;2023-11-21T12:24:17;10.90;99.90
2202;DHT22;1107;48.654;9.250;2023-11-21T12:26:44;10.80;99.90
2202;DHT22;1107;48.654;9.250;2023-11-21T12:29:11;10.70;99.90
2202;DHT22;1107;48.654;9.250;2023-11-21T12:31:38;10.60;99.90
2202;DHT22;1107;48.654;9.250;2023-11-21T12:34:08;10.50;99.90
2202;DHT22;1107;48.654;9.250;2023-11-21T12:36:37;10.50;99.90
2202;DHT22;1107;48.654;9.250;2023-11-21T12:39:04;10.30;99.90
2202;DHT22;1107;48.654;9.250;2023-11-21T12:41:34;10.20;99.90
2202;DHT22;1107;48.654;9.250;2023-11-21T12:44:01;10.20;99.90
2202;DHT22;1107;48.654;9.250;2023-11-21T12:46:28;10.20;99.90
2202;DHT22;1107;48.654;9.250;2023-11-21T12:48:58;10.30;99.90
2202;DHT22;1107;48.654;9.250;2023-11-21T12:51:27;10.30;99.90
2202;DHT22;1107;48.654;9.250;2023-11-21T12:53:55;10.40;99.90
2202;DHT22;1107;48.654;9.250;2023-11-21T12:56:24;10.60;99.90
2202;DHT22;1107;48.654;9.250;2023-11-21T12:58:53;10.70;99.90
2202;DHT22;1107;48.654;9.250;2023-11-21T13:01:25;10.70;99.90
2202;DHT22;1107;48.654;9.250;2023-11-21T13:03:57;10.70;99.90
2202;DHT22;1107;48.654;9.250;2023-11-21T13:06:27;10.70;99.90
2202;DHT22;1107;48.654;9.250;2023-11-21T13:08:59;10.70;99.90
2202;DHT22;1107;48.654;9.250;2023-11-21T13:11:26;10.60;99.90
2202;DHT22;1107;48.654;9.250;2023-11-21T13:13:57;10.50;99.90
2202;DHT22;1107;48.654;9.250;2023-11-21T13:16:26;10.50;99.90
2202;DHT22;1107;48.654;9.250;2023-11-21T13:18:53;10.50;99.90
2202;DHT22;1107;48.654;9.250;2023-11-21T13:21:20;10.40;99.90
2202;DHT22;1107;48.654;9.250;2023-11-21T13:23:49;10.50;99.90
2202;DHT22;1107;48.654;9.250;2023-11-21T13:26:18;10.40;99.90
2202;DHT22;1107;48.654;9.250;2023-11-21T13:28:46;10.50;99.90
2202;DHT22;1107;48.654;9.250;2023-11-21T13:31:13;10.40;99.90
2202;DHT22;1107;48.654;9.250;2023-11-21T13:33:52;10.40;99.90
2202;DHT22;1107;48.654;9.250;2023-11-21T13:36:22;10.30;99.90
2202;DHT22;1107;48.654;9.250;2023-11-21T13:38:51;10.30;99.90
2202;DHT22;1107;48.654;9.250;2023-11-21T13:41:19;10.30;99.90
2202;DHT22;1107;48.654;9.250;2023-11-21T13:43:48;10.30;99.90
2202;DHT22;1107;48.654;9.250;2023-11-21T13:46:22;10.30;99.90
2202;DHT22;1107;48.654;9.250;2023-11-21T13:48:50;10.50;99.90
2202;DHT22;1107;48.654;9.250;2023-11-21T13:51:21;10.90;99.90
2202;DHT22;1107;48.654;9.250;2023-11-21T13:53:58;11.00;99.90
2202;DHT22;1107;48.654;9.250;2023-11-21T13:56:26;11.00;99.90
2202;DHT22;1107;48.654;9.250;2023-11-21T13:58:54;10.90;99.90
2202;DHT22;1107;48.654;9.250;2023-11-21T14:01:22;10.90;99.90
2202;DHT22;1107;48.654;9.250;2023-11-21T14:04:08;10.80;99.90
2202;DHT22;1107;48.654;9.250;2023-11-21T14:06:46;10.60;99.90
2202;DHT22;1107;48.654;9.250;2023-11-21T14:09:16;10.50;99.90
2202;DHT22;1107;48.654;9.250;2023-11-21T14:11:49;10.50;99.90
2202;DHT22;1107;48.654;9.250;2023-11-21T14:14:18;10.40;99.90
2202;DHT22;1107;48.654;9.250;2023-11-21T14:16:45;10.40;99.90
2202;DHT22;1107;48.654;9.250;2023-11-21T14:19:12;10.30;99.90
2202;DHT22;1107;48.654;9.250;2023-11-21T14:21:43;10.10;99.90
2202;DHT22;1107;48.654;9.250;2023-11-21T14:24:10;10.00;99.90
2202;DHT22;1107;48.654;9.250;2023-11-21T14:26:40;9.90;99.90
2202;DHT22;1107;48.654;9.250;2023-11-21T14:29:08;9.90;99.90
2202;DHT22;1107;48.654;9.250;2023-11-21T14:31:38;9.90;99.90
2202;DHT22;1107;48.654;9.250;2023-11-21T14:34:05;9.80;99.90
2202;DHT22;1107;48.654;9.250;2023-11-21T14:36:33;9.70;99.90
2202;DHT22;1107;48.654;9.250;2023-11-21T14:39:00;9.80;99.90
2202;DHT22;1107;48.654;9.250;2023-11-21T14:41:27;9.60;99.90
2202;DHT22;1107;48.654;9.250;2023-11-21T14:43:55;9.50;99.90
2202;DHT22;1107;48.654;9.250;2023-11-21T14:46:23;9.50;99.90
2202;DHT22;1107;48.654;9.250;2023-11-21T14:48:50;9.50;99.90
2202;DHT22;1107;48.654;9.250;2023-11-21T14:51:25;9.50;99.90
2202;DHT22;1107;48.654;9.250;2023-11-21T14:53:53;9.50;99.90
2202;DHT22;1107;48.654;9.250;2023-11-21T14:56:19;9.40;99.90
2202;DHT22;1107;48.654;9.250;2023-11-21T14:58:52;9.40;99.90
2202;DHT22;1107;48.654;9.250;2023-11-21T15:01:20;9.40;99.90
2202;DHT22;1107;48.654;9.250;2023-11-21T15:03:59;9.40;99.90
2202;DHT22;1107;48.654;9.250;2023-11-21T15:06:25;9.40;99.90
2202;DHT22;1107;48.654;9.250;2023-11-21T15:08:56;9.20;99.90
2202;DHT22;1107;48.654;9.250;2023-11-21T15:11:45;9.30;99.90
2202;DHT22;1107;48.654;9.250;2023-11-21T15:14:13;9.30;99.90
2202;DHT22;1107;48.654;9.250;2023-11-21T15:16:47;9.30;99.90
2202;DHT22;1107;48.654;9.250;2023-11-21T15:19:18;9.20;99.90
2202;DHT22;1107;48.654;9.250;2023-11-21T15:21:51;9.20;99.90
2202;DHT22;1107;48.654;9.250;2023-11-21T15:24:18;9.20;99.90
2202;DHT22;1107;48.654;9.250;2023-11-21T15:26:44;9.10;99.90
2202;DHT22;1107;48.654;9.250;2023-11-21T15:29:11;9.10;99.90
2202;DHT22;1107;48.654;9.250;2023-11-21T15:31:40;9.00;99.90
2202;DHT22;1107;48.654;9.250;2023-11-21T15:34:13;9.00;99.90
2202;DHT22;1107;48.654;9.250;2023-11-21T15:36:40;8.90;99.90
2202;DHT22;1107;48.654;9.250;2023-11-21T15:39:06;8.90;99.90
2202;DHT22;1107;48.654;9.250;2023-11-21T15:41:36;8.90;99.90
2202;DHT22;1107;48.654;9.250;2023-11-21T15:44:04;8.90;99.90
2202;DHT22;1107;48.654;9.250;2023-11-21T15:46:33;8.90;99.90
2202;DHT22;1107;48.654;9.250;2023-11-21T15:49:01;8.90;99.90
2202;DHT22;1107;48.654;9.250;2023-11-21T15:51:31;8.90;99.90
2202;DHT22;1107;48.654;9.250;2023-11-21T15:54:00;8.90;99.90
2202;DHT22;1107;48.654;9.250;2023-11-21T15:56:27;8.90;99.90
2202;DHT22;1107;48.654;9.250;2023-11-21T15:58:54;8.90;99.90
2202;DHT22;1107;48.654;9.250;2023-11-21T16:01:21;8.90;99.90
2202;DHT22;1107;48.654;9.250;2023-11-21T16:03:48;8.90;99.90
2202;DHT22;1107;48.654;9.250;2023-11-21T16:06:16;8.90;99.90
2202;DHT22;1107;48.654;9.250;2023-11-21T16:08:45;8.80;99.90
2202;DHT22;1107;48.654;9.250;2023-11-21T16:11:12;8.80;99.90
2202;DHT22;1107;48.654;9.250;2023-11-21T16:13:39;8.80;99.90
2202;DHT22;1107;48.654;9.250;2023-11-21T16:16:08;8.80;99.90
2202;DHT22;1107;48.654;9.250;2023-11-21T16:18:35;8.80;99.90
2202;DHT22;1107;48.654;9.250;2023-11-21T16:21:02;8.80;99.90
2202;DHT22;1107;48.654;9.250;2023-11-21T16:23:29;8.80;99.90